Time;durP1;ratioP1;P1;durP2;ratioP2;P2;SDS_P1;SDS_P2;PMS_P1;PMS_P2;Temp;Humidity;BMP_temperature;BMP_pressure;BME280_temperature;BME280_humidity;BME280_pressure;Samples;Min_cycle;Max_cycle;Signal;HPM_P1;HPM_P2
2021/05/13 00:02:26;;;;;;;3.38;1.77;;;18.20;78.90;;;;;;5086255;28;20031;-66
2021/05/13 00:04:54;;;;;;;4.18;2.15;;;18.30;80.40;;;;;;5086616;28;20056;-67
2021/05/13 00:07:21;;;;;;;3.00;1.98;;;18.40;79.40;;;;;;5087367;28;20020;-66
2021/05/13 00:09:49;;;;;;;5.38;2.08;;;18.50;80.70;;;;;;5086369;28;20073;-67
2021/05/13 00:12:40;;;;;;;3.92;2.40;;;18.70;79.30;;;;;;5087227;28;20024;-66
2021/05/13 00:15:18;;;;;;;3.33;1.50;;;18.80;78.30;;;;;;5085152;28;20031;-65
2021/05/13 00:17:45;;;;;;;3.15;1.42;;;18.90;76.80;;;;;;5084861;28;20032;-66
2021/05/13 00:20:16;;;;;;;5.03;1.50;;;18.90;77.40;;;;;;5086099;28;20103;-66
2021/05/13 00:22:44;;;;;;;4.05;1.60;;;19.00;78.30;;;;;;5087214;28;20044;-65
2021/05/13 00:25:12;;;;;;;1.85;0.95;;;19.20;75.50;;;;;;4385191;28;10020718;-67
2021/05/13 00:27:39;;;;;;;3.63;1.60;;;19.30;76.40;;;;;;5081212;28;20066;-67
2021/05/13 00:30:08;;;;;;;2.95;1.00;;;19.40;73.90;;;;;;5084007;28;20027;-66
2021/05/13 00:32:39;;;;;;;5.68;1.30;;;19.40;74.70;;;;;;5084606;28;20070;-65
2021/05/13 00:35:09;;;;;;;3.58;1.50;;;19.40;74.90;;;;;;5083223;28;20436;-66
2021/05/13 00:37:36;;;;;;;3.25;1.20;;;19.60;73.20;;;;;;5082649;28;20020;-65
2021/05/13 00:40:05;;;;;;;3.67;1.27;;;19.80;73.50;;;;;;5084076;28;20022;-66
2021/05/13 00:42:33;;;;;;;1.90;1.20;;;19.90;73.70;;;;;;5077317;28;20070;-66
2021/05/13 00:45:03;;;;;;;2.97;1.30;;;20.10;72.70;;;;;;5084299;28;20228;-70
2021/05/13 00:47:36;;;;;;;4.13;1.48;;;20.20;73.20;;;;;;5084093;28;20032;-67
2021/05/13 00:50:06;;;;;;;2.90;1.58;;;20.20;71.90;;;;;;5083316;28;20066;-67
2021/05/13 00:52:34;;;;;;;4.60;1.45;;;20.40;71.90;;;;;;5078103;28;20027;-69
2021/05/13 00:55:04;;;;;;;5.15;1.88;;;20.40;72.30;;;;;;5084191;28;20032;-66
2021/05/13 00:57:32;;;;;;;9.48;2.22;;;20.40;70.90;;;;;;5082548;28;20028;-69
2021/05/13 01:00:07;;;;;;;6.72;2.30;;;20.50;70.70;;;;;;5083330;28;20443;-67
2021/05/13 01:02:34;;;;;;;4.32;2.50;;;20.50;70.20;;;;;;5081688;28;20027;-65
2021/05/13 01:05:01;;;;;;;4.53;2.30;;;20.60;69.70;;;;;;5082952;28;20072;-67
2021/05/13 01:07:29;;;;;;;5.85;2.20;;;20.80;69.30;;;;;;5082982;28;20539;-67
2021/05/13 01:09:56;;;;;;;5.97;1.90;;;21.00;69.60;;;;;;5084430;28;20028;-66
2021/05/13 01:12:23;;;;;;;2.47;1.40;;;21.10;69.00;;;;;;5084032;28;20043;-65
2021/05/13 01:14:53;;;;;;;4.75;1.70;;;21.10;67.30;;;;;;5083950;28;20086;-67
2021/05/13 01:17:37;;;;;;;5.53;1.60;;;21.10;69.40;;;;;;5084397;28;20027;-70
2021/05/13 01:20:08;;;;;;;2.00;1.30;;;21.20;67.20;;;;;;5080443;28;20349;-68
2021/05/13 01:22:35;;;;;;;3.33;1.55;;;21.30;65.20;;;;;;5123731;23;20060;-67
2021/05/13 01:25:03;;;;;;;1.67;1.27;;;21.40;67.10;;;;;;5077429;28;20074;-67
2021/05/13 01:27:30;;;;;;;4.35;1.65;;;21.60;64.60;;;;;;5080287;28;20130;-66
2021/05/13 01:29:59;;;;;;;2.78;1.50;;;21.70;65.20;;;;;;5081306;28;20024;-65
2021/05/13 01:32:26;;;;;;;2.72;1.15;;;21.90;65.50;;;;;;5082284;28;20020;-67
2021/05/13 01:34:53;;;;;;;3.22;1.42;;;22.10;65.60;;;;;;5063449;28;20488;-68
2021/05/13 01:37:20;;;;;;;2.35;1.20;;;22.10;63.50;;;;;;5082936;28;20020;-66
2021/05/13 01:39:48;;;;;;;3.20;1.20;;;22.20;62.00;;;;;;5083770;28;20047;-67
2021/05/13 01:42:15;;;;;;;2.08;1.20;;;22.20;64.20;;;;;;5082366;28;20128;-67
2021/05/13 01:44:43;;;;;;;1.42;1.20;;;22.30;63.10;;;;;;5082073;28;20028;-67
2021/05/13 01:47:10;;;;;;;2.72;1.23;;;22.30;62.40;;;;;;5086220;28;20016;-66
2021/05/13 01:49:38;;;;;;;2.70;1.40;;;22.40;62.90;;;;;;5087652;28;20032;-66
2021/05/13 01:52:06;;;;;;;3.45;1.30;;;22.50;61.30;;;;;;5086401;28;20107;-67
2021/05/13 01:54:33;;;;;;;1.63;1.10;;;22.60;61.90;;;;;;5085928;28;20495;-67
2021/05/13 01:57:08;;;;;;;8.13;1.30;;;22.50;62.50;;;;;;5079065;28;20400;-67
2021/05/13 01:59:36;;;;;;;4.30;1.45;;;22.60;63.90;;;;;;5086002;28;20428;-67
2021/05/13 02:02:04;;;;;;;2.15;1.08;;;22.80;62.80;;;;;;5084915;28;20027;-67
2021/05/13 02:04:31;;;;;;;1.80;1.13;;;23.00;61.30;;;;;;5086740;28;20020;-66
2021/05/13 02:06:59;;;;;;;2.65;1.00;;;23.10;59.90;;;;;;5077319;28;20520;-67
2021/05/13 02:09:26;;;;;;;1.48;0.80;;;23.10;58.90;;;;;;5084362;28;20776;-66
2021/05/13 02:11:59;;;;;;;2.10;1.10;;;23.20;59.10;;;;;;5063835;28;20094;-66
2021/05/13 02:14:26;;;;;;;2.25;1.20;;;23.30;57.50;;;;;;5073069;28;20029;-67
2021/05/13 02:16:53;;;;;;;2.40;0.90;;;23.30;58.30;;;;;;5084470;28;20093;-68
2021/05/13 02:19:23;;;;;;;2.95;1.20;;;23.40;56.00;;;;;;5084965;28;20035;-68
2021/05/13 02:21:54;;;;;;;3.30;1.20;;;23.30;57.10;;;;;;5085271;28;20036;-68
2021/05/13 02:24:24;;;;;;;3.40;1.35;;;23.30;58.50;;;;;;5076012;28;20063;-69
2021/05/13 02:26:54;;;;;;;1.75;1.05;;;23.30;59.30;;;;;;5089338;28;20119;-68
2021/05/13 02:29:21;;;;;;;2.22;1.30;;;23.30;59.30;;;;;;5084371;28;20112;-68
2021/05/13 02:31:48;;;;;;;2.63;0.98;;;23.50;58.80;;;;;;5080095;28;20425;-69
2021/05/13 02:34:16;;;;;;;3.67;1.10;;;23.60;56.80;;;;;;5056790;28;20024;-68
2021/05/13 02:36:43;;;;;;;5.57;1.85;;;23.70;57.20;;;;;;5058679;28;20027;-69
2021/05/13 02:39:10;;;;;;;2.10;1.30;;;23.60;59.00;;;;;;5063984;28;20078;-68
2021/05/13 02:41:38;;;;;;;1.92;1.10;;;23.50;58.20;;;;;;5066956;28;20052;-66
2021/05/13 02:44:06;;;;;;;4.78;1.30;;;23.60;58.70;;;;;;5063930;28;20063;-66
2021/05/13 02:46:33;;;;;;;4.20;1.20;;;23.90;55.70;;;;;;5066322;28;20023;-66
2021/05/13 02:49:00;;;;;;;5.25;1.30;;;23.70;56.70;;;;;;5063293;28;20120;-68
2021/05/13 02:51:28;;;;;;;2.75;1.25;;;23.60;57.00;;;;;;5062361;28;20044;-67
2021/05/13 02:53:58;;;;;;;4.60;1.92;;;23.50;58.30;;;;;;5059297;28;20028;-67
2021/05/13 02:56:25;;;;;;;4.78;2.20;;;23.60;58.50;;;;;;5056200;28;20061;-69
2021/05/13 02:58:52;;;;;;;18.25;12.95;;;23.70;58.20;;;;;;5043043;28;20044;-68
2021/05/13 03:03:50;;;;;;;3.53;1.30;;;24.00;56.80;;;;;;5064133;28;20032;-68
2021/05/13 03:06:18;;;;;;;3.10;1.30;;;23.90;55.60;;;;;;5061693;28;20033;-68
2021/05/13 03:08:46;;;;;;;3.30;1.30;;;24.10;57.20;;;;;;5065109;28;20027;-69
2021/05/13 03:11:14;;;;;;;2.63;1.35;;;24.20;56.10;;;;;;5065818;28;20030;-68
2021/05/13 03:13:41;;;;;;;3.53;1.77;;;24.20;55.10;;;;;;5064052;28;20305;-69
2021/05/13 03:16:08;;;;;;;2.97;1.33;;;24.20;56.10;;;;;;5064791;28;20029;-69
2021/05/13 03:18:35;;;;;;;2.17;1.27;;;24.10;57.10;;;;;;5065269;28;20040;-68
2021/05/13 03:21:08;;;;;;;3.97;1.42;;;24.10;56.20;;;;;;5064997;28;20032;-68
2021/05/13 03:26:54;;;;;;;2.53;1.20;;;24.00;53.90;;;;;;5007267;28;20056;-67
2021/05/13 03:29:21;;;;;;;3.38;1.33;;;23.90;53.80;;;;;;5024648;28;20512;-69
2021/05/13 03:31:49;;;;;;;3.90;2.00;;;23.90;54.40;;;;;;5044898;28;20048;-68
2021/05/13 03:34:16;;;;;;;3.45;1.40;;;24.00;55.10;;;;;;5044431;28;20136;-69
2021/05/13 03:36:44;;;;;;;2.83;1.30;;;24.10;55.10;;;;;;5025484;28;20021;-70
2021/05/13 03:39:11;;;;;;;4.18;1.42;;;24.00;55.10;;;;;;5043856;28;20025;-68
2021/05/13 03:41:38;;;;;;;4.32;1.50;;;24.10;55.50;;;;;;5039569;28;20025;-70
2021/05/13 03:44:06;;;;;;;4.28;1.10;;;24.20;55.80;;;;;;5026570;28;20024;-69
2021/05/13 03:46:33;;;;;;;2.60;1.63;;;24.40;54.80;;;;;;5026943;28;20052;-70
2021/05/13 03:49:01;;;;;;;1.58;0.90;;;24.60;53.60;;;;;;5044161;28;20024;-70
2021/05/13 03:51:28;;;;;;;1.70;0.98;;;24.60;53.40;;;;;;5038077;28;20283;-71
2021/05/13 03:53:56;;;;;;;1.58;1.15;;;24.50;53.20;;;;;;5044219;28;20024;-69
2021/05/13 03:56:23;;;;;;;2.28;1.30;;;24.40;54.40;;;;;;5044290;28;20644;-70
2021/05/13 03:58:55;;;;;;;3.10;1.25;;;24.40;54.70;;;;;;5044553;28;20501;-70
2021/05/13 04:01:45;;;;;;;;;;;24.40;53.80;;;;;;5043489;28;20029;-70
2021/05/13 04:04:13;;;;;;;2.53;0.90;;;24.60;54.20;;;;;;5041847;28;20003;-70
2021/05/13 04:06:41;;;;;;;2.65;1.05;;;24.60;54.90;;;;;;5043154;28;20450;-69
2021/05/13 04:09:12;;;;;;;2.28;1.20;;;24.60;54.10;;;;;;5041707;28;20107;-67
2021/05/13 04:11:42;;;;;;;3.97;0.90;;;24.80;52.50;;;;;;5044286;28;20021;-69
2021/05/13 04:14:12;;;;;;;2.40;1.25;;;24.70;53.70;;;;;;5018847;28;20017;-67
2021/05/13 04:16:42;;;;;;;2.13;1.15;;;24.60;54.80;;;;;;5039647;28;20025;-71
2021/05/13 04:19:12;;;;;;;1.73;1.17;;;24.80;54.90;;;;;;5043792;28;20496;-70
2021/05/13 04:21:42;;;;;;;2.35;1.20;;;24.80;54.00;;;;;;5044171;28;20040;-70
2021/05/13 04:24:13;;;;;;;1.48;1.00;;;24.70;54.80;;;;;;5056366;28;20400;-70
2021/05/13 04:26:41;;;;;;;2.35;1.25;;;24.60;53.10;;;;;;5052774;28;20031;-70
2021/05/13 04:29:14;;;;;;;2.80;1.20;;;24.70;54.20;;;;;;5054846;28;20521;-70
2021/05/13 04:31:45;;;;;;;4.65;1.13;;;24.60;55.80;;;;;;5063596;28;20032;-69
2021/05/13 04:34:15;;;;;;;3.17;1.20;;;24.50;55.40;;;;;;5053681;28;20021;-68
2021/05/13 04:36:45;;;;;;;9.10;7.63;;;24.40;55.00;;;;;;5062003;28;20448;-68
2021/05/13 04:39:15;;;;;;;2.97;1.92;;;24.30;55.00;;;;;;5065281;28;20514;-70
2021/05/13 04:41:45;;;;;;;2.08;1.50;;;24.20;56.70;;;;;;5062492;28;20040;-67
2021/05/13 04:44:12;;;;;;;2.92;1.48;;;24.30;56.90;;;;;;5060629;28;20033;-71
2021/05/13 04:46:40;;;;;;;1.95;1.23;;;24.60;54.90;;;;;;5057987;28;20032;-72
2021/05/13 04:51:38;;;;;;;2.53;1.42;;;24.70;54.50;;;;;;5056219;28;20492;-69
2021/05/13 04:54:05;;;;;;;2.88;1.40;;;24.60;54.20;;;;;;5058649;28;20779;-69
2021/05/13 04:56:33;;;;;;;1.30;1.20;;;24.60;53.00;;;;;;5060361;28;20041;-66
2021/05/13 04:59:01;;;;;;;5.90;1.80;;;24.50;55.20;;;;;;5058764;28;20030;-70
2021/05/13 05:01:28;;;;;;;6.85;2.10;;;24.60;55.60;;;;;;5062881;28;20121;-70
2021/05/13 05:03:55;;;;;;;2.45;1.20;;;24.70;55.40;;;;;;5064243;28;20587;-69
2021/05/13 05:06:23;;;;;;;6.15;1.88;;;24.90;53.60;;;;;;5063122;28;20071;-70
2021/05/13 05:08:50;;;;;;;3.15;1.88;;;24.80;54.80;;;;;;5062632;28;20485;-69
2021/05/13 05:11:20;;;;;;;3.05;1.85;;;24.80;54.50;;;;;;5062302;28;20361;-69
2021/05/13 05:13:51;;;;;;;2.78;1.70;;;24.70;54.60;;;;;;5063851;28;20056;-69
2021/05/13 05:16:21;;;;;;;1.67;1.50;;;24.80;53.60;;;;;;5057574;28;20016;-67
2021/05/13 05:18:51;;;;;;;1.75;1.58;;;24.90;52.60;;;;;;5054591;28;20439;-69
2021/05/13 05:21:18;;;;;;;4.63;1.95;;;24.90;53.20;;;;;;5064726;28;20227;-70
2021/05/13 05:23:45;;;;;;;3.17;1.95;;;24.50;53.10;;;;;;5061632;28;20045;-66
2021/05/13 05:26:12;;;;;;;2.33;2.00;;;24.60;54.50;;;;;;5059135;28;20828;-66
2021/05/13 05:28:40;;;;;;;2.42;1.90;;;24.60;54.60;;;;;;5062449;28;20719;-70
2021/05/13 05:31:07;;;;;;;2.22;1.90;;;24.90;52.20;;;;;;5065366;28;20020;-71
2021/05/13 05:33:34;;;;;;;3.35;2.05;;;25.10;52.10;;;;;;5070554;28;20031;-69
2021/05/13 05:36:02;;;;;;;2.00;1.80;;;25.30;50.40;;;;;;5063513;28;20040;-69
2021/05/13 05:38:29;;;;;;;3.55;2.30;;;25.40;50.10;;;;;;5060929;28;20043;-70
2021/05/13 05:40:56;;;;;;;4.45;2.40;;;25.40;51.20;;;;;;5063523;28;20133;-69
2021/05/13 05:43:23;;;;;;;5.03;2.03;;;25.00;52.20;;;;;;5064357;28;20035;-70
2021/05/13 05:45:51;;;;;;;5.53;1.75;;;24.90;52.60;;;;;;5066815;28;20384;-69
2021/05/13 05:48:18;;;;;;;2.35;1.85;;;25.10;51.10;;;;;;5067670;28;20024;-67
2021/05/13 05:50:46;;;;;;;1.85;1.65;;;25.40;50.90;;;;;;5067297;28;20070;-72
2021/05/13 05:53:13;;;;;;;2.72;2.15;;;25.40;50.50;;;;;;5066524;28;20017;-70
2021/05/13 05:55:41;;;;;;;2.78;2.45;;;25.40;48.70;;;;;;5066311;28;20186;-70
2021/05/13 05:58:09;;;;;;;2.50;2.30;;;24.90;47.00;;;;;;5067224;28;20029;-68
2021/05/13 06:00:37;;;;;;;2.97;2.20;;;24.40;46.90;;;;;;5060037;28;20031;-71
2021/05/13 06:03:04;;;;;;;2.72;2.25;;;24.10;47.50;;;;;;5066408;28;20033;-70
2021/05/13 06:05:32;;;;;;;2.10;1.90;;;23.80;47.50;;;;;;5067047;28;20431;-71
2021/05/13 06:07:59;;;;;;;3.35;1.98;;;23.70;48.70;;;;;;5066720;28;20063;-65
2021/05/13 06:10:26;;;;;;;2.92;2.15;;;23.60;53.00;;;;;;5062012;28;20020;-67
2021/05/13 06:12:54;;;;;;;5.32;2.58;;;23.50;51.70;;;;;;5059618;28;20028;-71
2021/05/13 06:15:23;;;;;;;3.53;2.05;;;23.40;51.40;;;;;;5061529;28;20471;-66
2021/05/13 06:17:50;;;;;;;4.72;2.08;;;23.30;50.70;;;;;;5054180;28;20079;-71
2021/05/13 06:20:24;;;;;;;2.55;2.15;;;23.20;51.60;;;;;;5058192;28;20111;-67
2021/05/13 06:22:51;;;;;;;3.13;2.42;;;23.10;51.90;;;;;;5061282;28;20044;-70
2021/05/13 06:25:20;;;;;;;3.33;2.30;;;22.90;51.10;;;;;;5063240;28;20029;-67
2021/05/13 06:27:48;;;;;;;6.38;4.65;;;22.90;50.40;;;;;;5058009;28;20033;-70
2021/05/13 06:30:16;;;;;;;2.67;1.98;;;22.90;50.90;;;;;;5059540;28;20021;-70
2021/05/13 06:32:45;;;;;;;3.63;3.25;;;22.90;50.30;;;;;;5061601;28;20113;-67
2021/05/13 06:35:16;;;;;;;4.85;2.55;;;22.70;49.90;;;;;;5057500;28;20119;-71
2021/05/13 06:37:44;;;;;;;3.38;2.45;;;22.60;49.90;;;;;;5058733;28;20579;-67
2021/05/13 06:40:13;;;;;;;2.83;2.28;;;22.70;50.90;;;;;;5057995;28;20024;-71
2021/05/13 06:42:41;;;;;;;2.42;1.92;;;23.00;50.00;;;;;;5063295;28;20059;-67
2021/05/13 06:45:10;;;;;;;2.05;1.80;;;23.30;47.20;;;;;;5058312;28;20035;-67
2021/05/13 06:47:39;;;;;;;4.03;2.70;;;23.50;47.80;;;;;;5054810;28;20025;-71
2021/05/13 06:50:08;;;;;;;5.72;4.05;;;23.70;46.20;;;;;;5059730;28;20075;-74
2021/05/13 06:52:39;;;;;;;9.88;8.48;;;23.60;47.80;;;;;;5059028;28;20028;-67
2021/05/13 06:55:07;;;;;;;3.25;2.28;;;23.30;48.90;;;;;;5056569;28;20451;-71
2021/05/13 06:57:37;;;;;;;2.92;1.67;;;23.00;48.80;;;;;;5060959;28;20036;-68
2021/05/13 07:00:08;;;;;;;3.33;3.03;;;22.70;47.50;;;;;;5056016;28;20036;-72
2021/05/13 07:02:38;;;;;;;5.28;2.67;;;22.40;52.70;;;;;;5060048;28;20056;-69
2021/05/13 07:05:09;;;;;;;2.17;1.92;;;21.90;53.40;;;;;;5044147;28;20028;-66
2021/05/13 07:07:40;;;;;;;3.22;1.70;;;21.60;52.90;;;;;;5059176;28;20771;-74
2021/05/13 07:10:08;;;;;;;4.35;1.88;;;21.30;53.30;;;;;;5056913;28;20032;-67
2021/05/13 07:12:36;;;;;;;5.22;2.80;;;21.20;55.00;;;;;;5055681;28;20025;-66
2021/05/13 07:15:04;;;;;;;3.15;2.10;;;20.90;56.20;;;;;;5054312;28;20086;-73
2021/05/13 07:17:32;;;;;;;20.00;15.68;;;20.80;55.60;;;;;;5055640;28;20028;-72
2021/05/13 07:19:59;;;;;;;4.50;1.85;;;20.60;56.90;;;;;;5057946;28;20492;-75
2021/05/13 07:22:26;;;;;;;7.20;3.22;;;20.40;56.80;;;;;;5030293;28;20060;-67
2021/05/13 07:24:53;;;;;;;4.30;1.88;;;20.20;57.00;;;;;;5035423;28;20048;-66
2021/05/13 07:27:21;;;;;;;3.72;2.03;;;20.20;54.50;;;;;;5033687;28;20092;-67
2021/05/13 07:29:50;;;;;;;4.05;1.73;;;20.10;54.80;;;;;;5035076;28;20132;-67
2021/05/13 07:32:18;;;;;;;2.78;1.80;;;20.10;52.90;;;;;;5036900;28;20032;-69
2021/05/13 07:34:45;;;;;;;5.40;1.95;;;19.90;53.60;;;;;;5038779;28;20025;-73
2021/05/13 07:37:15;;;;;;;3.28;1.67;;;19.90;52.30;;;;;;5031951;28;20025;-66
2021/05/13 07:39:45;;;;;;;6.10;1.80;;;19.90;52.30;;;;;;5033667;28;20456;-74
2021/05/13 07:42:13;;;;;;;3.30;1.45;;;19.90;53.00;;;;;;5039149;28;20033;-70
2021/05/13 07:44:40;;;;;;;2.45;1.52;;;19.80;51.90;;;;;;5033861;28;20364;-70
2021/05/13 07:47:10;;;;;;;4.55;1.65;;;19.70;52.50;;;;;;5029839;28;20440;-70
2021/05/13 07:49:37;;;;;;;7.88;1.77;;;19.50;53.20;;;;;;5036358;28;20025;-74
2021/05/13 07:52:05;;;;;;;5.40;1.58;;;19.40;54.60;;;;;;5040119;28;20114;-69
2021/05/13 07:54:32;;;;;;;5.53;1.90;;;19.40;54.10;;;;;;5041312;28;20377;-64
2021/05/13 07:57:00;;;;;;;4.15;1.67;;;19.40;54.20;;;;;;5036815;28;20128;-64
2021/05/13 07:59:27;;;;;;;3.67;1.60;;;19.20;54.50;;;;;;5036887;28;20040;-69
2021/05/13 08:01:55;;;;;;;5.13;1.90;;;19.00;55.00;;;;;;5033452;28;20409;-64
2021/05/13 08:04:22;;;;;;;3.38;1.60;;;18.90;55.40;;;;;;5034296;28;20239;-65
2021/05/13 08:06:49;;;;;;;4.13;1.73;;;18.90;54.70;;;;;;5035460;28;20024;-70
2021/05/13 08:09:17;;;;;;;3.85;1.90;;;18.90;55.20;;;;;;5030954;28;20565;-68
2021/05/13 08:11:45;;;;;;;7.65;2.13;;;18.90;55.00;;;;;;5033322;28;20091;-69
2021/05/13 08:14:12;;;;;;;8.85;2.05;;;18.80;57.50;;;;;;5037735;28;20028;-64
2021/05/13 08:16:39;;;;;;;9.50;1.65;;;18.80;56.30;;;;;;5037374;28;20560;-66
2021/05/13 08:19:07;;;;;;;7.05;1.75;;;18.80;56.00;;;;;;5029586;28;20124;-66
2021/05/13 08:21:36;;;;;;;5.70;2.25;;;18.70;55.70;;;;;;5035294;28;20744;-70
2021/05/13 08:24:04;;;;;;;3.45;2.17;;;18.60;56.20;;;;;;5059700;28;20052;-65
2021/05/13 08:26:31;;;;;;;3.10;1.70;;;18.50;56.40;;;;;;5040997;28;20044;-69
2021/05/13 08:28:58;;;;;;;2.72;1.70;;;18.30;56.70;;;;;;5060788;28;20424;-70
2021/05/13 08:31:25;;;;;;;1.55;1.38;;;18.30;57.10;;;;;;5061331;28;20464;-67
2021/05/13 08:33:53;;;;;;;2.50;1.80;;;18.20;57.50;;;;;;5061271;28;20024;-67
2021/05/13 08:36:23;;;;;;;3.78;1.90;;;18.10;57.90;;;;;;5056617;28;20435;-64
2021/05/13 08:38:53;;;;;;;9.98;3.13;;;18.00;58.30;;;;;;5060251;28;20020;-65
2021/05/13 08:41:23;;;;;;;17.10;3.40;;;17.80;59.00;;;;;;5061045;28;20035;-66
2021/05/13 08:43:52;;;;;;;12.30;2.65;;;17.70;59.50;;;;;;5060663;28;20117;-62
2021/05/13 08:46:21;;;;;;;6.43;2.60;;;17.80;59.20;;;;;;5056199;28;20024;-66
2021/05/13 08:48:50;;;;;;;4.78;2.40;;;17.80;59.00;;;;;;5060645;28;20262;-61
2021/05/13 08:51:18;;;;;;;4.03;2.05;;;17.80;58.80;;;;;;5060559;28;20026;-62
2021/05/13 08:53:53;;;;;;;3.25;1.52;;;17.80;58.60;;;;;;5056017;28;20013;-67
2021/05/13 08:56:21;;;;;;;5.13;1.95;;;17.80;57.90;;;;;;5059435;28;20029;-67
2021/05/13 08:58:49;;;;;;;1.92;1.48;;;17.80;57.80;;;;;;5037789;28;20032;-67
2021/05/13 09:01:22;;;;;;;3.45;1.33;;;17.80;57.80;;;;;;5055658;28;20289;-68
2021/05/13 09:03:53;;;;;;;2.83;1.75;;;17.70;58.00;;;;;;5041390;28;20024;-69
2021/05/13 09:06:31;;;;;;;3.03;1.50;;;17.60;58.20;;;;;;5059676;28;20032;-67
2021/05/13 09:09:19;;;;;;;2.80;1.63;;;17.60;58.40;;;;;;5057467;28;20414;-69
2021/05/13 09:12:01;;;;;;;2.65;1.25;;;17.50;57.90;;;;;;4355431;28;10000738;-64
2021/05/13 09:14:32;;;;;;;1.75;1.55;;;17.50;58.20;;;;;;5065176;28;20012;-68
2021/05/13 09:17:01;;;;;;;2.33;1.58;;;17.50;58.80;;;;;;5051428;28;20037;-68
2021/05/13 09:19:34;;;;;;;2.03;1.20;;;17.50;58.80;;;;;;5048380;28;20272;-62
2021/05/13 09:22:07;;;;;;;1.80;1.50;;;17.40;58.70;;;;;;5047724;28;20033;-71
2021/05/13 09:25:04;;;;;;;4.95;1.70;;;17.40;58.80;;;;;;5036391;28;20349;-71
2021/05/13 09:27:36;;;;;;;2.25;1.55;;;17.30;59.30;;;;;;5008406;28;20057;-73
2021/05/13 09:30:16;;;;;;;3.88;1.80;;;17.30;59.10;;;;;;5032013;28;20063;-72
2021/05/13 09:32:51;;;;;;;2.67;1.60;;;17.20;58.70;;;;;;5034810;28;20493;-64
2021/05/13 09:35:27;;;;;;;2.40;1.70;;;17.20;58.10;;;;;;5022511;28;20228;-68
2021/05/13 09:37:58;;;;;;;2.40;1.40;;;17.20;59.10;;;;;;5037197;28;20074;-65
2021/05/13 09:40:40;;;;;;;1.65;1.48;;;17.20;58.30;;;;;;5036785;28;20071;-69
2021/05/13 09:43:25;;;;;;;6.70;1.75;;;17.30;57.90;;;;;;5032370;28;20029;-64
2021/05/13 09:45:58;;;;;;;3.97;1.80;;;17.30;57.80;;;;;;5035243;28;20044;-67
2021/05/13 09:48:47;;;;;;;4.22;1.73;;;17.30;57.90;;;;;;5036232;28;20032;-64
2021/05/13 09:51:35;;;;;;;4.38;1.48;;;17.20;58.30;;;;;;5019235;28;20032;-68
2021/05/13 09:54:17;;;;;;;2.78;1.50;;;17.20;58.10;;;;;;5032849;28;20025;-69
2021/05/13 09:56:54;;;;;;;6.57;1.27;;;17.20;58.70;;;;;;5032963;28;20029;-68
2021/05/13 09:59:34;;;;;;;3.80;1.70;;;17.10;58.80;;;;;;5037027;28;20463;-64
2021/05/13 10:02:06;;;;;;;3.75;1.52;;;17.10;59.30;;;;;;5033787;28;20440;-68
2021/05/13 10:04:34;;;;;;;2.10;1.42;;;16.90;59.60;;;;;;5035559;28;20334;-69
2021/05/13 10:07:01;;;;;;;1.60;1.40;;;17.00;59.10;;;;;;5036936;28;20067;-65
2021/05/13 10:09:31;;;;;;;5.90;2.13;;;17.00;59.10;;;;;;5040238;28;20578;-69
2021/05/13 10:12:00;;;;;;;4.50;1.75;;;17.10;58.90;;;;;;5039575;28;20033;-70
2021/05/13 10:14:28;;;;;;;6.68;1.80;;;17.10;58.90;;;;;;5039737;28;20150;-68
2021/05/13 10:17:03;;;;;;;2.70;1.60;;;17.00;59.60;;;;;;5041059;28;20032;-69
2021/05/13 10:19:33;;;;;;;5.10;2.17;;;16.90;59.80;;;;;;5038193;28;20021;-66
2021/05/13 10:22:04;;;;;;;5.70;2.40;;;16.90;60.10;;;;;;5037634;28;20124;-68
2021/05/13 10:24:31;;;;;;;3.85;3.22;;;16.90;59.80;;;;;;5023177;28;20040;-65
2021/05/13 10:26:58;;;;;;;2.80;2.50;;;16.80;60.70;;;;;;5044230;28;20039;-68
2021/05/13 10:29:26;;;;;;;5.80;3.83;;;16.60;60.90;;;;;;5047156;28;20368;-65
2021/05/13 10:32:21;;;;;;;3.80;3.05;;;16.60;61.60;;;;;;5047311;28;20024;-65
2021/05/13 10:34:57;;;;;;;4.53;2.35;;;16.60;61.60;;;;;;5046894;28;20049;-69
2021/05/13 10:37:38;;;;;;;6.50;4.40;;;16.50;62.10;;;;;;5046734;28;20029;-66
2021/05/13 10:42:48;;;;;;;4.25;3.83;;;16.60;61.30;;;;;;5044539;28;20061;-68
2021/05/13 10:45:30;;;;;;;4.13;2.60;;;16.50;61.70;;;;;;5046543;28;20031;-65
2021/05/13 10:48:14;;;;;;;5.70;2.30;;;16.40;63.00;;;;;;5043592;28;20033;-70
2021/05/13 10:50:47;;;;;;;14.00;9.65;;;16.20;63.70;;;;;;5045488;28;21051;-66
2021/05/13 10:53:32;;;;;;;;;;;16.20;63.40;;;;;;5045818;28;20029;-66
2021/05/13 10:56:28;;;;;;;3.88;2.85;;;16.30;63.30;;;;;;5042160;28;19913;-65
2021/05/13 10:59:17;;;;;;;3.22;2.00;;;16.20;63.90;;;;;;5021143;28;20044;-65
2021/05/13 11:01:56;;;;;;;3.90;2.00;;;16.10;65.10;;;;;;5044697;28;20570;-66
2021/05/13 11:04:24;;;;;;;1.60;1.50;;;16.00;64.90;;;;;;5057471;28;20434;-64
2021/05/13 11:07:15;;;;;;;3.10;2.10;;;16.00;65.30;;;;;;5045071;28;20060;-67
2021/05/13 11:09:49;;;;;;;2.55;1.80;;;16.00;65.80;;;;;;5014375;28;20037;-65
2021/05/13 11:12:37;;;;;;;1.92;1.73;;;16.00;64.40;;;;;;5060577;28;20049;-65
2021/05/13 11:15:16;;;;;;;3.75;1.52;;;16.30;63.50;;;;;;5043319;28;20674;-67
2021/05/13 11:20:40;;;;;;;3.13;1.75;;;16.50;62.10;;;;;;5043730;28;20056;-65
2021/05/13 11:23:26;;;;;;;1.98;1.77;;;16.50;62.10;;;;;;5042240;28;20139;-68
2021/05/13 11:25:55;;;;;;;1.70;1.25;;;16.50;61.70;;;;;;5043215;28;20115;-67
2021/05/13 11:28:28;;;;;;;2.22;1.70;;;16.50;60.70;;;;;;4675176;28;9999941;-66
2021/05/13 11:31:09;;;;;;;4.88;1.40;;;16.50;61.40;;;;;;5040919;28;20021;-67
2021/05/13 11:33:51;;;;;;;2.53;1.33;;;16.50;61.10;;;;;;5039973;28;20032;-66
2021/05/13 11:36:24;;;;;;;1.40;1.20;;;16.30;61.30;;;;;;5040460;28;20087;-68
2021/05/13 11:38:56;;;;;;;1.65;1.15;;;16.20;62.10;;;;;;5040220;28;20033;-65
2021/05/13 11:41:24;;;;;;;1.70;1.42;;;15.90;63.30;;;;;;5040740;28;20071;-67
2021/05/13 11:43:55;;;;;;;2.42;1.92;;;15.60;64.70;;;;;;5039723;28;20049;-64
2021/05/13 11:46:29;;;;;;;3.17;1.52;;;15.60;64.30;;;;;;5038509;28;20028;-67
2021/05/13 11:48:57;;;;;;;3.50;1.67;;;15.80;62.90;;;;;;5040737;28;20032;-66
2021/05/13 11:51:29;;;;;;;1.30;1.20;;;15.90;62.90;;;;;;5036974;28;20416;-66
2021/05/13 11:53:59;;;;;;;3.33;1.45;;;15.90;63.40;;;;;;5041587;28;20099;-66
2021/05/13 11:56:31;;;;;;;2.38;1.60;;;15.70;64.30;;;;;;5037599;28;20099;-66
2021/05/13 11:59:01;;;;;;;2.00;1.33;;;15.50;64.00;;;;;;5041051;28;20473;-68
2021/05/13 12:01:39;;;;;;;1.80;1.33;;;15.40;64.70;;;;;;5039905;28;20040;-66
2021/05/13 12:04:24;;;;;;;2.33;1.58;;;15.10;66.20;;;;;;5039788;28;20033;-65
2021/05/13 12:07:03;;;;;;;3.45;1.50;;;15.00;67.50;;;;;;5039953;28;20112;-68
2021/05/13 12:09:33;;;;;;;1.75;1.40;;;14.90;67.50;;;;;;5039187;28;20452;-67
2021/05/13 12:12:02;;;;;;;2.65;1.92;;;14.70;68.80;;;;;;5037473;28;20830;-66
2021/05/13 12:14:34;;;;;;;5.32;1.98;;;14.60;69.70;;;;;;5037809;28;20055;-65
2021/05/13 12:17:09;;;;;;;1.83;1.60;;;14.40;71.30;;;;;;5038890;28;20441;-65
2021/05/13 12:19:44;;;;;;;6.90;2.13;;;14.30;71.30;;;;;;5038634;28;20083;-68
2021/05/13 12:22:13;;;;;;;2.65;2.00;;;14.30;70.60;;;;;;5040336;28;20032;-67
2021/05/13 12:24:43;;;;;;;1.70;1.60;;;14.30;70.10;;;;;;5054312;28;20572;-66
2021/05/13 12:27:15;;;;;;;3.38;1.67;;;14.40;69.50;;;;;;5047774;28;20020;-67
2021/05/13 12:29:46;;;;;;;2.65;1.73;;;14.50;69.60;;;;;;5051371;28;20028;-66
2021/05/13 12:32:35;;;;;;;4.43;2.05;;;14.40;69.40;;;;;;5051196;28;20114;-65
2021/05/13 12:35:21;;;;;;;4.18;1.48;;;14.40;70.20;;;;;;5053501;28;20150;-65
2021/05/13 12:37:48;;;;;;;2.42;1.60;;;14.30;70.10;;;;;;5041005;28;20021;-67
2021/05/13 12:40:17;;;;;;;2.92;2.05;;;14.20;71.40;;;;;;5055106;28;20024;-67
2021/05/13 12:42:45;;;;;;;2.85;1.92;;;14.10;71.50;;;;;;5060805;28;20043;-67
2021/05/13 12:45:17;;;;;;;4.07;1.60;;;14.00;71.90;;;;;;5056912;28;20508;-65
2021/05/13 12:47:54;;;;;;;1.80;1.57;;;14.00;71.60;;;;;;5052111;28;20381;-68
2021/05/13 12:50:26;;;;;;;3.92;1.92;;;14.10;71.30;;;;;;5053586;28;20111;-68
2021/05/13 12:53:09;;;;;;;2.65;1.70;;;14.00;72.80;;;;;;5049375;28;20025;-65
2021/05/13 12:55:41;;;;;;;2.70;1.90;;;13.80;73.70;;;;;;5054972;28;20345;-68
2021/05/13 12:58:17;;;;;;;4.70;2.08;;;13.70;73.50;;;;;;5057153;28;20068;-68
2021/05/13 13:00:51;;;;;;;6.32;2.00;;;13.50;75.00;;;;;;5055159;28;20043;-66
2021/05/13 13:03:19;;;;;;;4.15;1.90;;;13.40;75.00;;;;;;5057987;28;20032;-66
2021/05/13 13:05:46;;;;;;;2.75;1.90;;;13.30;75.10;;;;;;5061763;28;20492;-68
2021/05/13 13:08:33;;;;;;;2.80;1.88;;;13.30;75.70;;;;;;5061177;28;20094;-68
2021/05/13 13:11:00;;;;;;;2.40;1.55;;;13.20;75.60;;;;;;5055591;28;20150;-65
2021/05/13 13:13:41;;;;;;;3.80;1.80;;;13.30;75.00;;;;;;5059354;28;20032;-69
2021/05/13 13:16:24;;;;;;;3.00;1.85;;;13.40;74.00;;;;;;5057818;28;20086;-67
2021/05/13 13:19:01;;;;;;;3.05;1.67;;;13.70;72.70;;;;;;5060032;28;20024;-67
2021/05/13 13:21:28;;;;;;;3.10;1.45;;;13.80;71.90;;;;;;5057136;28;20123;-66